createdAt,value
2022-10-12T00:00:19.923Z,8.17
2022-10-12T00:02:47.476Z,8.40
2022-10-12T00:05:15.041Z,8.93
2022-10-12T00:07:43.961Z,8.97
2022-10-12T00:10:11.526Z,8.07
2022-10-12T00:12:39.104Z,8.07
2022-10-12T00:15:07.018Z,8.20
2022-10-12T00:17:34.696Z,8.13
2022-10-12T00:20:02.600Z,7.47
2022-10-12T00:22:30.142Z,7.77
2022-10-12T00:24:59.040Z,7.50
2022-10-12T00:27:26.757Z,7.70
2022-10-12T00:29:54.306Z,7.77
2022-10-12T00:32:22.136Z,7.70
2022-10-12T00:34:49.705Z,7.27
2022-10-12T00:37:17.256Z,7.70
2022-10-12T00:39:44.831Z,8.23
2022-10-12T00:42:13.789Z,7.63
2022-10-12T00:44:42.730Z,7.67
2022-10-12T00:47:22.124Z,8.33
2022-10-12T00:49:51.412Z,7.10
2022-10-12T00:52:21.357Z,7.80
2022-10-12T00:54:50.181Z,8.33
2022-10-12T00:57:19.661Z,9.03
2022-10-12T00:59:50.189Z,7.47
2022-10-12T01:02:18.205Z,8.37
2022-10-12T01:04:45.870Z,7.53
2022-10-12T01:07:13.538Z,7.33
2022-10-12T01:09:41.512Z,7.23
2022-10-12T01:12:09.208Z,7.80
2022-10-12T01:14:38.171Z,7.73
2022-10-12T01:17:13.003Z,8.10
2022-10-12T01:20:00.005Z,8.37
2022-10-12T01:22:29.056Z,7.90
2022-10-12T01:25:02.528Z,9.00
2022-10-12T01:27:42.811Z,9.47
2022-10-12T01:30:19.732Z,11.00
2022-10-12T01:33:03.852Z,11.70
2022-10-12T01:35:35.097Z,11.80
2022-10-12T01:38:06.358Z,11.50
2022-10-12T01:40:36.218Z,11.50
2022-10-12T01:43:04.147Z,12.10
2022-10-12T01:45:33.096Z,12.60
2022-10-12T01:48:01.373Z,12.47
2022-10-12T01:50:31.608Z,11.70
2022-10-12T01:53:01.385Z,12.03
2022-10-12T01:55:35.236Z,13.33
2022-10-12T01:58:20.404Z,12.43
2022-10-12T02:00:53.760Z,12.90
2022-10-12T02:03:22.881Z,13.17
2022-10-12T02:05:52.473Z,13.00
2022-10-12T02:08:24.165Z,12.73
2022-10-12T02:10:54.017Z,13.03
2022-10-12T02:13:23.088Z,13.90
2022-10-12T02:15:52.522Z,13.10
2022-10-12T02:18:21.286Z,12.80
2022-10-12T02:20:50.127Z,12.67
2022-10-12T02:23:18.223Z,13.60
2022-10-12T02:25:46.149Z,13.20
2022-10-12T02:28:15.029Z,13.50
2022-10-12T02:30:45.952Z,13.37
2022-10-12T02:33:17.105Z,11.77
2022-10-12T02:35:46.876Z,12.37
2022-10-12T02:38:17.177Z,12.23
2022-10-12T02:40:47.042Z,13.03
2022-10-12T02:43:16.761Z,12.83
2022-10-12T02:45:45.907Z,12.97
2022-10-12T02:48:16.875Z,12.33
2022-10-12T02:50:44.739Z,12.10
2022-10-12T02:53:13.493Z,13.17
2022-10-12T02:55:48.296Z,11.83
2022-10-12T02:58:15.860Z,12.43
2022-10-12T03:00:43.433Z,11.33
2022-10-12T03:03:11.069Z,11.07
2022-10-12T03:05:40.012Z,10.40
2022-10-12T03:08:07.569Z,11.27
2022-10-12T03:10:35.197Z,11.47
2022-10-12T03:13:02.823Z,13.47
2022-10-12T03:15:30.405Z,12.57
2022-10-12T03:17:57.972Z,17.10
2022-10-12T03:20:25.605Z,16.23
2022-10-12T03:22:54.597Z,16.07
2022-10-12T03:25:22.161Z,16.63
2022-10-12T03:27:49.708Z,15.90
2022-10-12T03:30:17.374Z,15.10
2022-10-12T03:32:44.912Z,15.00
2022-10-12T03:35:12.473Z,15.87
2022-10-12T03:37:40.319Z,15.80
2022-10-12T03:40:10.892Z,16.30
2022-10-12T03:42:38.448Z,16.80
2022-10-12T03:45:06.359Z,15.87
2022-10-12T03:47:33.925Z,14.83
2022-10-12T03:50:01.471Z,13.63
2022-10-12T03:52:29.136Z,13.57
2022-10-12T03:54:56.686Z,13.67
2022-10-12T03:57:25.609Z,13.80
2022-10-12T03:59:53.176Z,13.60
2022-10-12T04:02:20.830Z,13.50
2022-10-12T04:04:48.357Z,13.73
2022-10-12T04:07:15.929Z,13.57
2022-10-12T04:09:43.497Z,13.47
2022-10-12T04:12:11.137Z,14.03
2022-10-12T04:14:40.060Z,14.30
2022-10-12T04:17:07.751Z,13.33
2022-10-12T04:19:35.290Z,14.17
2022-10-12T04:22:02.852Z,13.83
2022-10-12T04:24:30.421Z,13.50
2022-10-12T04:26:57.990Z,13.93
2022-10-12T04:29:25.577Z,14.80
2022-10-12T04:31:54.549Z,14.57
2022-10-12T04:34:22.113Z,14.43
2022-10-12T04:36:49.677Z,15.33
2022-10-12T04:39:17.241Z,14.23
2022-10-12T04:41:44.792Z,13.17
2022-10-12T04:44:12.367Z,14.97
2022-10-12T04:46:39.941Z,14.20
2022-10-12T04:49:08.858Z,14.60
2022-10-12T04:51:36.432Z,14.03
2022-10-12T04:54:04.001Z,13.73
2022-10-12T04:56:31.546Z,14.77
2022-10-12T04:58:59.114Z,14.57
2022-10-12T05:01:26.816Z,14.03
2022-10-12T05:03:54.447Z,13.93
2022-10-12T05:06:23.373Z,13.57
2022-10-12T05:08:50.988Z,13.00
2022-10-12T05:11:18.540Z,13.13
2022-10-12T05:13:46.112Z,13.10
2022-10-12T05:16:13.779Z,13.03
2022-10-12T05:18:41.345Z,14.03
2022-10-12T05:21:08.962Z,14.60
2022-10-12T05:23:37.957Z,14.77
2022-10-12T05:26:05.719Z,15.17
2022-10-12T05:28:38.342Z,15.13
2022-10-12T05:31:08.329Z,15.30
2022-10-12T05:33:35.885Z,16.60
2022-10-12T05:36:03.441Z,15.77
2022-10-12T05:38:30.991Z,18.63
2022-10-12T05:41:00.916Z,18.50
2022-10-12T05:43:28.915Z,20.93
2022-10-12T05:45:56.475Z,20.60
2022-10-12T05:48:24.050Z,20.77
2022-10-12T05:50:53.118Z,20.17
2022-10-12T05:53:20.676Z,18.83
2022-10-12T05:55:55.345Z,18.50
2022-10-12T05:58:24.349Z,17.57
2022-10-12T06:00:51.999Z,17.23
2022-10-12T06:03:21.959Z,17.40
2022-10-12T06:05:53.031Z,16.10
2022-10-12T06:08:20.595Z,15.77
2022-10-12T06:10:50.556Z,16.10
2022-10-12T06:13:19.562Z,15.67
2022-10-12T06:15:48.712Z,15.40
2022-10-12T06:18:16.845Z,15.50
2022-10-12T06:20:46.890Z,15.37
2022-10-12T06:23:15.043Z,15.77
2022-10-12T06:25:42.655Z,15.47
2022-10-12T06:28:10.296Z,15.60
2022-10-12T06:30:37.885Z,15.57
2022-10-12T06:33:07.089Z,14.77
2022-10-12T06:35:34.877Z,15.00
2022-10-12T06:38:02.646Z,15.77
2022-10-12T06:40:30.296Z,15.10
2022-10-12T06:43:02.489Z,13.87
2022-10-12T06:45:30.485Z,15.53
2022-10-12T06:47:58.205Z,14.77
2022-10-12T06:50:27.424Z,15.20
2022-10-12T06:52:55.206Z,15.13
2022-10-12T06:55:22.825Z,14.73
2022-10-12T06:57:50.360Z,14.83
2022-10-12T07:00:18.121Z,15.40
2022-10-12T07:02:45.729Z,15.03
2022-10-12T07:05:14.432Z,15.10
2022-10-12T07:07:43.346Z,14.53
2022-10-12T07:10:10.941Z,14.13
2022-10-12T07:12:39.425Z,14.80
2022-10-12T07:15:08.271Z,14.73
2022-10-12T07:17:36.127Z,14.33
2022-10-12T07:20:04.169Z,14.80
2022-10-12T07:22:31.784Z,14.50
2022-10-12T07:25:00.712Z,14.83
2022-10-12T07:27:28.266Z,14.23
2022-10-12T07:29:55.829Z,15.23
2022-10-12T07:32:23.393Z,15.00
2022-10-12T07:34:50.948Z,13.53
2022-10-12T07:37:18.536Z,15.60
2022-10-12T07:39:46.209Z,15.07
2022-10-12T07:42:19.048Z,14.80
2022-10-12T07:44:47.165Z,14.60
2022-10-12T07:47:16.331Z,14.60
2022-10-12T07:49:43.877Z,14.10
2022-10-12T07:52:11.493Z,15.07
2022-10-12T07:54:39.026Z,13.93
2022-10-12T07:57:06.805Z,14.13
2022-10-12T07:59:35.720Z,13.97
2022-10-12T08:02:03.349Z,12.90
2022-10-12T08:04:30.977Z,13.50
2022-10-12T08:06:59.528Z,14.13
2022-10-12T08:09:27.127Z,13.43
2022-10-12T08:11:56.049Z,13.57
2022-10-12T08:14:23.965Z,13.63
2022-10-12T08:16:52.876Z,13.30
2022-10-12T08:19:20.429Z,14.13
2022-10-12T08:21:47.976Z,13.40
2022-10-12T08:24:15.601Z,13.23
2022-10-12T08:26:43.185Z,13.83
2022-10-12T08:29:10.926Z,14.70
2022-10-12T08:31:38.513Z,13.53
2022-10-12T08:34:08.143Z,14.67
2022-10-12T08:36:35.695Z,14.03
2022-10-12T08:39:06.655Z,12.77
2022-10-12T08:41:49.028Z,13.33
2022-10-12T08:44:28.401Z,13.00
2022-10-12T08:46:57.820Z,12.50
2022-10-12T08:49:28.913Z,13.53
2022-10-12T08:51:57.675Z,13.83
2022-10-12T08:54:26.621Z,15.43
2022-10-12T08:56:54.574Z,16.40
2022-10-12T08:59:22.153Z,14.40
2022-10-12T09:01:56.807Z,15.00
2022-10-12T09:04:34.348Z,15.13
2022-10-12T09:07:05.544Z,16.03
2022-10-12T09:09:44.087Z,14.37
2022-10-12T09:12:20.324Z,13.80
2022-10-12T09:14:48.433Z,14.00
2022-10-12T09:17:23.529Z,14.13
2022-10-12T09:19:54.155Z,12.47
2022-10-12T09:22:21.713Z,13.30
2022-10-12T09:24:50.854Z,13.20
2022-10-12T09:27:19.557Z,12.97
2022-10-12T09:29:48.433Z,12.83
2022-10-12T09:32:26.206Z,12.43
2022-10-12T09:34:57.247Z,11.87
2022-10-12T09:37:25.748Z,11.60
2022-10-12T09:39:53.375Z,11.20
2022-10-12T09:42:20.936Z,12.67
2022-10-12T09:44:49.344Z,11.53
2022-10-12T09:47:27.813Z,12.10
2022-10-12T09:49:58.817Z,12.27
2022-10-12T09:52:28.697Z,12.43
2022-10-12T09:54:58.032Z,12.27
2022-10-12T09:57:26.896Z,11.57
2022-10-12T09:59:55.321Z,13.23
2022-10-12T10:02:23.355Z,12.47
2022-10-12T10:04:51.838Z,12.23
2022-10-12T10:07:25.385Z,12.00
2022-10-12T10:10:08.060Z,11.63
2022-10-12T10:12:38.809Z,11.17
2022-10-12T10:15:06.721Z,11.00
2022-10-12T10:17:34.632Z,11.67
2022-10-12T10:20:04.509Z,10.80
2022-10-12T10:22:33.544Z,10.83
2022-10-12T10:25:01.851Z,12.00
2022-10-12T10:27:34.600Z,11.13
2022-10-12T10:30:30.803Z,12.00
2022-10-12T10:33:08.800Z,12.80
2022-10-12T10:35:36.608Z,12.53
2022-10-12T10:38:07.340Z,12.83
2022-10-12T10:40:35.214Z,12.50
2022-10-12T10:43:04.436Z,12.70
2022-10-12T10:45:33.951Z,12.40
2022-10-12T10:48:07.839Z,12.80
2022-10-12T10:50:37.600Z,12.23
2022-10-12T10:53:08.333Z,12.33
2022-10-12T10:55:43.734Z,11.90
2022-10-12T10:58:19.204Z,12.70
2022-10-12T11:00:48.278Z,12.93
2022-10-12T11:05:51.555Z,12.07
2022-10-12T11:08:23.242Z,12.50
2022-10-12T11:10:54.670Z,13.03
2022-10-12T11:13:25.332Z,11.73
2022-10-12T11:15:55.548Z,12.50
2022-10-12T11:18:26.811Z,12.73
2022-10-12T11:20:57.205Z,13.60
2022-10-12T11:23:29.818Z,12.00
2022-10-12T11:26:01.780Z,12.57
2022-10-12T11:28:31.886Z,13.17
2022-10-12T11:30:59.946Z,12.37
2022-10-12T11:33:28.606Z,12.87
2022-10-12T11:35:57.934Z,12.90
2022-10-12T11:38:30.073Z,12.53
2022-10-12T11:41:13.829Z,13.10
2022-10-12T11:43:51.164Z,12.43
2022-10-12T11:46:19.878Z,13.27
2022-10-12T11:48:51.514Z,12.90
2022-10-12T11:51:19.111Z,13.70
2022-10-12T11:53:51.929Z,13.17
2022-10-12T11:56:21.917Z,13.10
2022-10-12T11:59:07.027Z,13.37
2022-10-12T12:01:44.555Z,12.90
2022-10-12T12:04:40.479Z,13.70
2022-10-12T12:07:06.981Z,12.30
2022-10-12T12:09:40.714Z,13.27
2022-10-12T12:12:29.441Z,13.37
2022-10-12T12:15:06.064Z,13.30
2022-10-12T12:17:34.429Z,13.07
2022-10-12T12:20:02.724Z,13.27
2022-10-12T12:22:32.205Z,14.00
2022-10-12T12:25:17.797Z,13.30
2022-10-12T12:27:47.593Z,13.50
2022-10-12T12:30:25.780Z,14.30
2022-10-12T12:32:54.954Z,13.37
2022-10-12T12:35:27.650Z,13.17
2022-10-12T12:38:07.349Z,13.77
2022-10-12T12:40:36.560Z,12.53
2022-10-12T12:43:35.399Z,13.60
2022-10-12T12:46:04.141Z,17.33
2022-10-12T12:48:50.286Z,14.87
2022-10-12T12:51:19.132Z,14.37
2022-10-12T12:53:49.382Z,12.40
2022-10-12T12:56:20.577Z,13.03
2022-10-12T12:59:05.922Z,12.43
2022-10-12T13:01:41.897Z,13.17
2022-10-12T13:04:26.039Z,12.30
2022-10-12T13:07:08.147Z,12.20
2022-10-12T13:09:44.253Z,12.73
2022-10-12T13:12:18.261Z,12.63
2022-10-12T13:15:04.332Z,12.87
2022-10-12T13:17:40.983Z,13.73
2022-10-12T13:20:13.841Z,13.13
2022-10-12T13:22:41.888Z,12.30
2022-10-12T13:25:13.829Z,12.33
2022-10-12T13:27:46.224Z,13.17
2022-10-12T13:30:16.265Z,13.13
2022-10-12T13:32:46.927Z,13.03
2022-10-12T13:35:18.071Z,11.80
2022-10-12T13:38:00.221Z,12.47
2022-10-12T13:40:28.611Z,12.23
2022-10-12T13:42:57.593Z,11.40
2022-10-12T13:45:25.215Z,11.47
2022-10-12T13:47:52.826Z,13.33
2022-10-12T13:50:21.320Z,12.00
2022-10-12T13:52:55.318Z,11.77
2022-10-12T13:55:26.101Z,12.70
2022-10-12T13:57:53.668Z,11.70
2022-10-12T14:00:24.956Z,12.60
2022-10-12T14:02:56.393Z,11.27
2022-10-12T14:05:25.056Z,11.30
2022-10-12T14:07:53.477Z,11.37
2022-10-12T14:10:22.544Z,11.80
2022-10-12T14:12:51.809Z,11.80
2022-10-12T14:15:19.794Z,12.77
2022-10-12T14:17:50.713Z,11.77
2022-10-12T14:20:26.516Z,12.03
2022-10-12T14:22:54.249Z,11.93
2022-10-12T14:25:22.767Z,11.23
2022-10-12T14:27:54.517Z,11.43
2022-10-12T14:30:23.388Z,11.07
2022-10-12T14:32:59.410Z,11.70
2022-10-12T14:35:28.020Z,11.73
2022-10-12T14:37:56.359Z,11.77
2022-10-12T14:40:41.590Z,11.33
2022-10-12T14:43:23.887Z,12.93
2022-10-12T14:45:51.657Z,12.20
2022-10-12T14:48:23.209Z,12.50
2022-10-12T14:50:50.799Z,11.37
2022-10-12T14:53:18.344Z,11.20
2022-10-12T14:55:48.527Z,12.37
2022-10-12T14:58:18.739Z,12.53
2022-10-12T15:00:46.388Z,11.20
2022-10-12T15:03:17.828Z,12.40
2022-10-12T15:05:46.953Z,11.50
2022-10-12T15:08:14.493Z,11.23
2022-10-12T15:10:42.033Z,11.50
2022-10-12T15:13:11.570Z,11.47
2022-10-12T15:15:40.649Z,11.67
2022-10-12T15:18:08.229Z,11.53
2022-10-12T15:20:36.570Z,11.93
2022-10-12T15:23:05.824Z,12.03
2022-10-12T15:25:38.732Z,11.53
2022-10-12T15:28:06.960Z,12.30
2022-10-12T15:30:36.084Z,11.27
2022-10-12T15:33:07.849Z,11.77
2022-10-12T15:35:36.127Z,12.60
2022-10-12T15:38:05.377Z,11.80
2022-10-12T15:40:33.709Z,12.63
2022-10-12T15:43:01.562Z,12.83
2022-10-12T15:45:29.836Z,12.60
2022-10-12T15:47:57.408Z,12.60
2022-10-12T15:50:25.912Z,11.50
2022-10-12T15:52:54.160Z,12.00
2022-10-12T15:55:27.180Z,11.43
2022-10-12T15:57:54.846Z,12.13
2022-10-12T16:00:23.358Z,11.93
2022-10-12T16:02:50.901Z,11.60
2022-10-12T16:05:20.661Z,12.77
2022-10-12T16:07:48.225Z,13.00
2022-10-12T16:10:16.368Z,12.43
2022-10-12T16:12:46.665Z,12.90
2022-10-12T16:15:14.932Z,12.63
2022-10-12T16:17:42.505Z,12.87
2022-10-12T16:20:10.726Z,12.87
2022-10-12T16:22:38.597Z,12.33
2022-10-12T16:25:06.782Z,11.93
2022-10-12T16:27:34.387Z,12.53
2022-10-12T16:30:03.470Z,12.17
2022-10-12T16:32:31.032Z,12.93
2022-10-12T16:34:58.629Z,12.33
2022-10-12T16:37:26.266Z,12.73
2022-10-12T16:39:53.957Z,12.30
2022-10-12T16:42:21.701Z,12.67
2022-10-12T16:44:49.280Z,12.47
2022-10-12T16:47:18.315Z,13.07
2022-10-12T16:49:46.143Z,12.13
2022-10-12T16:52:14.044Z,12.27
2022-10-12T16:54:41.808Z,12.13
2022-10-12T16:57:09.368Z,13.07
2022-10-12T16:59:36.916Z,13.30
2022-10-12T17:02:04.482Z,13.83
2022-10-12T17:04:33.541Z,12.73
2022-10-12T17:07:01.082Z,13.30
2022-10-12T17:09:28.753Z,12.80
2022-10-12T17:11:56.392Z,13.23
2022-10-12T17:14:24.411Z,11.57
2022-10-12T17:16:52.264Z,13.03
2022-10-12T17:19:21.435Z,12.77
2022-10-12T17:21:50.357Z,13.90
2022-10-12T17:24:19.217Z,12.43
2022-10-12T17:26:47.305Z,14.23
2022-10-12T17:29:16.020Z,13.00
2022-10-12T17:31:44.007Z,14.47
2022-10-12T17:34:17.439Z,14.27
2022-10-12T17:36:45.328Z,13.40
2022-10-12T17:39:14.286Z,14.00
2022-10-12T17:41:41.900Z,13.93
2022-10-12T17:44:11.172Z,13.93
2022-10-12T17:46:38.808Z,13.57
2022-10-12T17:49:06.539Z,13.77
2022-10-12T17:51:35.624Z,13.83
2022-10-12T17:54:03.178Z,14.73
2022-10-12T17:56:32.361Z,14.40
2022-10-12T17:59:01.536Z,15.27
2022-10-12T18:01:29.711Z,14.03
2022-10-12T18:03:59.954Z,14.50
2022-10-12T18:06:27.553Z,13.97
2022-10-12T18:08:56.349Z,14.67
2022-10-12T18:11:24.337Z,14.00
2022-10-12T18:13:54.152Z,14.33
2022-10-12T18:16:23.876Z,14.60
2022-10-12T18:18:52.630Z,15.13
2022-10-12T18:21:20.929Z,15.10
2022-10-12T18:23:48.568Z,14.93
2022-10-12T18:26:19.660Z,13.53
2022-10-12T18:28:47.547Z,15.03
2022-10-12T18:31:19.786Z,13.90
2022-10-12T18:33:47.536Z,13.47
2022-10-12T18:36:15.547Z,14.23
2022-10-12T18:38:43.332Z,13.73
2022-10-12T18:41:11.952Z,14.23
2022-10-12T18:43:39.797Z,14.00
2022-10-12T18:46:07.804Z,13.00
2022-10-12T18:48:36.805Z,13.20
2022-10-12T18:51:05.338Z,11.67
2022-10-12T18:53:33.050Z,12.43
2022-10-12T18:56:02.199Z,12.37
2022-10-12T18:58:29.765Z,12.30
2022-10-12T19:00:57.349Z,12.03
2022-10-12T19:03:24.920Z,11.80
2022-10-12T19:06:02.998Z,12.40
2022-10-12T19:08:31.205Z,12.87
2022-10-12T19:10:58.833Z,13.00
2022-10-12T19:13:26.382Z,12.70
2022-10-12T19:15:54.131Z,12.37
2022-10-12T19:18:21.676Z,13.47
2022-10-12T19:20:49.274Z,13.03
2022-10-12T19:23:18.204Z,13.03
2022-10-12T19:25:45.736Z,13.07
2022-10-12T19:28:13.368Z,12.33
2022-10-12T19:30:40.957Z,12.30
2022-10-12T19:33:08.517Z,12.80
2022-10-12T19:35:37.401Z,12.03
2022-10-12T19:38:05.046Z,10.90
2022-10-12T19:40:37.501Z,13.03
2022-10-12T19:43:06.833Z,13.77
2022-10-12T19:45:38.521Z,13.23
2022-10-12T19:48:06.821Z,13.30
2022-10-12T19:50:34.637Z,12.80
2022-10-12T19:53:02.202Z,12.20
2022-10-12T19:55:32.792Z,12.77
2022-10-12T19:58:16.008Z,13.30
2022-10-12T20:01:08.476Z,14.30
2022-10-12T20:03:48.873Z,15.10
2022-10-12T20:06:24.331Z,13.90
2022-10-12T20:08:53.955Z,14.37
2022-10-12T20:11:24.765Z,14.33
2022-10-12T20:13:54.351Z,13.77
2022-10-12T20:16:22.685Z,13.90
2022-10-12T20:18:50.932Z,13.70
2022-10-12T20:21:19.985Z,11.93
2022-10-12T20:24:01.121Z,12.07
2022-10-12T20:26:42.000Z,11.97
2022-10-12T20:29:31.024Z,11.23
2022-10-12T20:31:58.875Z,10.60
2022-10-12T20:34:26.628Z,11.73
2022-10-12T20:36:54.228Z,11.63
2022-10-12T20:39:22.392Z,11.93
2022-10-12T20:41:49.932Z,12.30
2022-10-12T20:44:17.469Z,12.57
2022-10-12T20:46:56.877Z,14.70
2022-10-12T20:49:24.501Z,11.77
2022-10-12T20:51:52.222Z,12.03
2022-10-12T20:54:19.764Z,13.10
2022-10-12T20:56:49.363Z,13.33
2022-10-12T20:59:16.923Z,13.40
2022-10-12T21:01:44.488Z,12.87
2022-10-12T21:04:13.585Z,13.33
2022-10-12T21:06:42.504Z,12.30
2022-10-12T21:09:14.223Z,12.20
2022-10-12T21:11:43.566Z,12.60
2022-10-12T21:14:11.697Z,13.73
2022-10-12T21:16:39.260Z,12.80
2022-10-12T21:19:06.853Z,12.23
2022-10-12T21:21:35.777Z,12.80
2022-10-12T21:24:03.772Z,12.47
2022-10-12T21:26:31.825Z,12.40
2022-10-12T21:28:59.901Z,12.63
2022-10-12T21:31:32.028Z,13.30
2022-10-12T21:34:01.585Z,12.20
2022-10-12T21:36:29.581Z,13.27
2022-10-12T21:38:58.500Z,15.17
2022-10-12T21:41:26.931Z,18.77
2022-10-12T21:43:54.885Z,16.50
2022-10-12T21:46:25.129Z,13.90
2022-10-12T21:48:52.852Z,15.10
2022-10-12T21:51:21.030Z,14.30
2022-10-12T21:53:49.027Z,14.07
2022-10-12T21:56:18.743Z,14.33
2022-10-12T21:58:46.517Z,14.13
2022-10-12T22:01:14.971Z,18.60
2022-10-12T22:03:42.815Z,15.97
2022-10-12T22:06:12.940Z,14.87
2022-10-12T22:08:40.521Z,16.50
2022-10-12T22:11:13.953Z,16.07
2022-10-12T22:13:42.869Z,15.83
2022-10-12T22:16:11.877Z,16.03
2022-10-12T22:18:39.795Z,14.20
2022-10-12T22:21:08.148Z,14.27
2022-10-12T22:23:35.748Z,12.67
2022-10-12T22:26:05.384Z,13.80
2022-10-12T22:28:33.078Z,14.57
2022-10-12T22:31:02.669Z,13.17
2022-10-12T22:33:30.219Z,14.57
2022-10-12T22:35:58.580Z,14.47
2022-10-12T22:38:26.577Z,13.70
2022-10-12T22:40:57.440Z,12.93
2022-10-12T22:43:25.031Z,13.00
2022-10-12T22:45:52.775Z,12.73
2022-10-12T22:48:22.006Z,12.43
2022-10-12T22:50:50.057Z,12.33
2022-10-12T22:53:18.329Z,12.60
2022-10-12T22:55:45.889Z,12.80
2022-10-12T22:58:13.809Z,11.60
2022-10-12T23:00:41.782Z,12.00
2022-10-12T23:03:09.360Z,12.07
2022-10-12T23:05:38.255Z,12.07
2022-10-12T23:08:05.813Z,12.97
2022-10-12T23:10:33.388Z,12.20
2022-10-12T23:13:00.974Z,12.70
2022-10-12T23:15:28.564Z,12.90
2022-10-12T23:17:56.292Z,12.10
2022-10-12T23:20:23.834Z,11.70
2022-10-12T23:22:53.565Z,11.37
2022-10-12T23:25:21.127Z,11.40
2022-10-12T23:27:48.702Z,12.43
2022-10-12T23:30:16.333Z,11.77
2022-10-12T23:32:43.875Z,11.60
2022-10-12T23:35:11.432Z,11.17
2022-10-12T23:37:43.356Z,11.80
2022-10-12T23:40:13.550Z,11.10
2022-10-12T23:42:41.135Z,12.17
2022-10-12T23:45:08.912Z,11.73
2022-10-12T23:47:36.473Z,11.43
2022-10-12T23:50:04.142Z,11.50
2022-10-12T23:52:31.705Z,11.47
2022-10-12T23:54:59.276Z,12.03
2022-10-12T23:57:46.041Z,11.10
